Eltham, United Kingdom
Current Conditions -  °F | °C
As of 8:20 AM on Friday 19 Dec 2014 (Local Time) from EGLC Reporting Station
Scattered Clouds Scattered Clouds  
Wind Chill: 52°   Ceiling: Unl
Heat Index: 52°   Visibility: 6mi
Dew Point: 45°   Wind: 10mph
Humidity: 76%   Direction: 310°NW
Pressure: 29.88"   Gusts: NA
Location:  51.45°N, 0.06°E
Report Text: EGLC 190820Z 31009KT 9999 SCT023 11/07 Q1012
Loading
Personal Weather Stations






























Interactive Weather Map New forecast layout! Learn more

10-Day Weather Forecast

Advertisements
Track Severe Weather on mobile